Time;durP1;ratioP1;P1;durP2;ratioP2;P2;SDS_P1;SDS_P2;PMS_P1;PMS_P2;Temp;Humidity;BMP_temperature;BMP_pressure;BME280_temperature;BME280_humidity;BME280_pressure;Samples;Min_cycle;Max_cycle;Signal;HPM_P1;HPM_P2
2022/12/15 00:39:43;;;;;;;25.17;16.15;;;;;;;-0.50;68.29;99641.47;4197778;28;20036;-77
2022/12/15 00:41:46;;;;;;;32.90;18.27;;;;;;;-0.52;68.32;99645.66;4194681;28;20033;-79
2022/12/15 00:43:49;;;;;;;28.45;17.23;;;;;;;-0.55;68.00;99654.03;4196200;28;20136;-78
2022/12/15 00:48:11;;;;;;;30.35;18.45;;;;;;;-0.59;69.31;99649.59;4175766;28;20078;-78
2022/12/15 01:20:43;;;;;;;30.50;19.25;;;;;;;-0.43;67.87;99671.59;4198740;28;20097;-78
2022/12/15 01:22:47;;;;;;;27.83;17.42;;;;;;;-0.44;68.24;99677.53;4195592;28;20037;-78
2022/12/15 01:24:51;;;;;;;28.08;17.10;;;;;;;-0.45;68.93;99677.41;4204906;28;20044;-78
2022/12/15 01:26:54;;;;;;;28.67;18.60;;;;;;;-0.46;68.01;99679.13;4191195;28;20041;-78
2022/12/15 01:28:57;;;;;;;31.90;19.15;;;;;;;-0.45;68.18;99677.41;4198741;28;20080;-78
2022/12/15 01:31:00;;;;;;;28.92;17.98;;;;;;;-0.44;67.56;99680.06;4198706;28;20040;-78
2022/12/15 01:33:03;;;;;;;30.80;18.30;;;;;;;-0.44;67.51;99680.06;4198491;28;20041;-78
2022/12/15 01:35:07;;;;;;;32.85;19.60;;;;;;;-0.47;68.24;99685.00;4195495;28;20402;-78
2022/12/15 01:37:10;;;;;;;32.47;19.33;;;;;;;-0.47;67.55;99685.00;4197836;28;20037;-78
2022/12/15 01:39:12;;;;;;;30.48;19.45;;;;;;;-0.47;68.51;99681.59;4183961;28;20147;-78
2022/12/15 01:41:16;;;;;;;28.52;17.17;;;;;;;-0.46;68.20;99698.66;4198128;28;20036;-78
2022/12/15 01:43:22;;;;;;;28.02;18.50;;;;;;;-0.48;69.07;99695.16;4186753;28;20040;-78
2022/12/15 01:45:49;;;;;;;25.30;15.88;;;;;;;-0.38;68.30;99693.13;4198126;28;20044;-78
2022/12/15 01:47:53;;;;;;;29.02;17.52;;;;;;;-0.37;67.12;99699.94;4180519;28;20557;-77
2022/12/15 01:49:56;;;;;;;25.48;17.40;;;;;;;-0.37;67.23;99702.50;4188139;28;20071;-78
2022/12/15 01:52:02;;;;;;;30.00;17.77;;;;;;;-0.32;66.90;99699.28;4196933;28;20485;-78
2022/12/15 01:54:09;;;;;;;29.85;18.20;;;;;;;-0.36;66.76;99699.16;4193884;28;20075;-78
2022/12/15 01:56:12;;;;;;;28.23;17.08;;;;;;;-0.38;66.95;99708.44;4186384;28;20041;-78
2022/12/15 01:58:20;;;;;;;30.60;18.13;;;;;;;-0.37;66.65;99705.06;4181995;28;20045;-78
2022/12/15 02:00:22;;;;;;;27.45;18.70;;;;;;;-0.41;67.50;99700.63;4183054;28;20044;-78
2022/12/15 02:02:28;;;;;;;25.40;16.88;;;;;;;-0.40;66.82;99692.16;4192104;28;20048;-78
2022/12/15 02:04:36;;;;;;;26.77;17.63;;;;;;;-0.42;67.34;99695.47;4184158;28;20105;-78
2022/12/15 02:06:39;;;;;;;27.27;17.35;;;;;;;-0.45;68.10;99693.63;4191530;28;20043;-78
2022/12/15 02:08:47;;;;;;;30.48;18.80;;;;;;;-0.44;68.01;99695.41;4189023;28;20497;-78
2022/12/15 02:11:07;;;;;;;32.47;18.10;;;;;;;-0.44;68.03;99703.06;4185467;28;20041;-78
2022/12/15 02:13:21;;;;;;;26.65;17.65;;;;;;;-0.42;68.31;99709.09;4196249;28;20105;-78
2022/12/15 02:15:29;;;;;;;26.73;16.23;;;;;;;-0.42;68.68;99706.53;4196673;28;20101;-78
2022/12/15 02:17:40;;;;;;;28.10;17.63;;;;;;;-0.42;68.88;99709.09;4194068;28;20040;-78
2022/12/15 02:20:09;;;;;;;27.63;17.17;;;;;;;-0.34;68.90;99706.88;4193248;28;20040;-77
2022/12/15 02:22:26;;;;;;;28.63;16.90;;;;;;;-0.25;67.36;99702.22;4192918;28;20466;-78
2022/12/15 02:24:51;;;;;;;28.52;16.88;;;;;;;-0.23;67.41;99707.38;4184799;28;20487;-78
2022/12/15 02:27:25;;;;;;;28.38;18.20;;;;;;;-0.23;66.50;99707.38;4196251;28;20036;-78
2022/12/15 02:29:52;;;;;;;29.13;18.00;;;;;;;-0.30;66.99;99698.56;4195884;28;20056;-78
2022/12/15 02:32:00;;;;;;;29.42;19.30;;;;;;;-0.35;66.53;99689.84;4180921;28;20094;-78
2022/12/15 02:34:11;;;;;;;29.83;17.63;;;;;;;-0.21;66.47;99705.75;4180982;28;20044;-77
2022/12/15 02:36:18;;;;;;;28.83;18.13;;;;;;;-0.32;67.26;99706.94;4192148;28;20035;-78
2022/12/15 02:38:34;;;;;;;30.95;17.45;;;;;;;-0.36;66.43;99706.81;4192893;28;20553;-78
2022/12/15 02:40:37;;;;;;;;;;;;;;;-0.41;67.49;99715.06;4196203;28;20379;-78
2022/12/15 02:42:45;;;;;;;30.02;18.20;;;;;;;-0.54;67.17;99711.97;4186725;28;20390;-78
2022/12/15 02:44:52;;;;;;;27.42;17.08;;;;;;;-0.47;67.98;99718.22;4192044;28;20473;-78
2022/12/15 02:47:14;;;;;;;30.42;19.08;;;;;;;-0.42;68.07;99713.34;4180939;28;20102;-78
2022/12/15 02:49:25;;;;;;;31.00;18.98;;;;;;;-0.39;67.29;99722.00;4181220;28;20426;-78
2022/12/15 02:51:39;;;;;;;30.50;19.02;;;;;;;-0.30;66.97;99724.09;4192821;28;20483;-77
2022/12/15 02:54:04;;;;;;;33.30;19.58;;;;;;;-0.30;66.60;99718.13;4196796;28;20555;-77
2022/12/15 02:56:15;;;;;;;30.52;18.45;;;;;;;-0.35;67.06;99715.38;4195103;28;20041;-78
2022/12/15 02:58:25;;;;;;;31.70;19.65;;;;;;;-0.37;66.96;99725.47;4190990;28;20044;-77
2022/12/15 03:00:33;;;;;;;31.85;19.30;;;;;;;-0.31;66.91;99726.59;4180680;28;20075;-77
2022/12/15 03:02:40;;;;;;;29.88;18.35;;;;;;;-0.32;66.78;99724.81;4187987;28;20039;-78
2022/12/15 03:04:44;;;;;;;31.02;18.90;;;;;;;-0.36;66.71;99724.69;4195086;28;20573;-78
2022/12/15 03:06:54;;;;;;;32.38;18.92;;;;;;;-0.34;67.72;99726.44;4193649;28;21422;-78
2022/12/15 03:09:03;;;;;;;29.50;17.95;;;;;;;-0.42;66.86;99739.72;4190861;28;20457;-78
2022/12/15 03:11:06;;;;;;;32.33;19.60;;;;;;;-0.40;67.89;99750.88;4196233;28;20048;-78
2022/12/15 03:13:09;;;;;;;38.40;20.15;;;;;;;-0.39;67.62;99747.53;4197277;28;20510;-78
2022/12/15 03:15:12;;;;;;;36.17;21.65;;;;;;;-0.38;66.78;99753.50;4195803;28;20045;-77
2022/12/15 03:17:14;;;;;;;36.40;20.98;;;;;;;-0.40;66.74;99748.31;4196001;28;20048;-78
2022/12/15 03:19:19;;;;;;;32.72;21.00;;;;;;;-0.41;67.39;99750.81;4197187;28;20032;-78
2022/12/15 03:21:22;;;;;;;44.50;21.48;;;;;;;-0.40;66.68;99748.31;4187847;28;20036;-78
2022/12/15 03:23:24;;;;;;;30.00;19.20;;;;;;;-0.42;67.36;99752.50;4194595;28;20044;-78
2022/12/15 03:25:28;;;;;;;32.05;19.98;;;;;;;-0.37;67.09;99738.25;4197018;28;20047;-78
2022/12/15 03:27:31;;;;;;;32.42;21.08;;;;;;;-0.37;67.24;99752.72;4197058;28;20045;-78
2022/12/15 03:29:33;;;;;;;33.13;20.45;;;;;;;-0.30;66.62;99746.22;4193820;28;20036;-77
2022/12/15 03:31:36;;;;;;;33.20;20.15;;;;;;;-0.32;66.78;99751.25;4178983;28;20033;-78
2022/12/15 03:33:39;;;;;;;29.65;18.65;;;;;;;-0.42;66.55;99755.06;4196866;28;20041;-77
2022/12/15 03:35:44;;;;;;;35.58;19.98;;;;;;;-0.48;66.72;99759.88;4182553;28;20055;-77
2022/12/15 03:37:47;;;;;;;32.95;19.65;;;;;;;-0.54;67.26;99769.78;4180370;28;20033;-77
2022/12/15 03:39:51;;;;;;;31.80;21.00;;;;;;;-0.50;68.03;99766.56;4186787;28;20037;-77
2022/12/15 03:41:54;;;;;;;31.25;19.27;;;;;;;-0.48;66.71;99767.53;4185315;28;20447;-77
2022/12/15 03:43:57;;;;;;;34.78;20.58;;;;;;;-0.47;67.60;99776.94;4195945;28;20036;-77
2022/12/15 03:45:59;;;;;;;32.83;19.70;;;;;;;-0.48;67.59;99771.75;4186678;28;20045;-79
2022/12/15 03:48:02;;;;;;;30.15;19.45;;;;;;;-0.50;68.01;99778.47;4196575;28;20498;-78
2022/12/15 03:50:06;;;;;;;31.48;19.80;;;;;;;-0.54;66.93;99770.69;4188669;28;20494;-78
2022/12/15 03:52:10;;;;;;;33.88;19.30;;;;;;;-0.45;66.72;99775.34;4180369;28;20383;-78
2022/12/15 03:54:13;;;;;;;34.15;20.65;;;;;;;-0.57;67.43;99780.75;4191450;28;20036;-78
2022/12/15 03:56:16;;;;;;;34.78;19.90;;;;;;;-0.61;67.69;99778.84;4184334;28;20044;-78
2022/12/15 03:58:19;;;;;;;30.98;19.90;;;;;;;-0.59;68.25;99771.25;4190728;28;20041;-77
2022/12/15 04:00:24;;;;;;;32.53;19.90;;;;;;;-0.58;68.24;99780.69;4185627;28;20043;-77
2022/12/15 04:02:27;;;;;;;32.33;20.50;;;;;;;-0.62;67.76;99776.22;4191530;28;20043;-77
2022/12/15 04:04:30;;;;;;;30.25;19.33;;;;;;;-0.67;68.18;99775.09;4177960;28;20043;-77
2022/12/15 04:06:33;;;;;;;31.33;18.85;;;;;;;-0.61;68.51;99773.75;4192818;28;20552;-77
2022/12/15 04:08:37;;;;;;;28.67;19.05;;;;;;;-0.57;68.39;99765.44;4181308;28;20509;-77
2022/12/15 04:10:40;;;;;;;30.63;19.27;;;;;;;-0.59;68.21;99777.22;4192493;28;20041;-78
2022/12/15 04:12:43;;;;;;;32.88;19.30;;;;;;;-0.65;67.35;99784.59;4195447;28;20063;-77
2022/12/15 04:14:45;;;;;;;29.13;18.27;;;;;;;-0.69;67.95;99784.38;4192445;28;20048;-78
2022/12/15 04:16:51;;;;;;;36.10;20.52;;;;;;;-0.73;67.96;99783.34;4194298;28;20044;-78
2022/12/15 04:21:10;;;;;;;32.95;19.48;;;;;;;-0.75;67.94;99784.97;4180125;28;20045;-79
2022/12/15 04:23:14;;;;;;;30.80;19.23;;;;;;;-0.71;67.93;99782.63;4180828;28;20098;-78
2022/12/15 05:33:37;;;;;;;31.83;18.92;;;;;;;-0.93;68.01;99802.81;4197216;28;20475;-78
2022/12/15 05:35:40;;;;;;;33.00;20.08;;;;;;;-1.02;68.37;99810.88;4189755;28;20043;-78
2022/12/15 05:37:43;;;;;;;33.42;19.45;;;;;;;-1.15;68.23;99824.69;4191648;28;20402;-78
2022/12/15 05:39:45;;;;;;;33.50;20.77;;;;;;;-1.16;69.56;99820.38;4195836;28;20568;-78
2022/12/15 05:41:49;;;;;;;33.72;21.50;;;;;;;-1.18;69.32;99827.09;4194740;28;20080;-78
2022/12/15 05:43:52;;;;;;;34.90;20.13;;;;;;;-1.22;69.20;99822.63;4187343;28;20048;-78
2022/12/15 05:45:55;;;;;;;31.60;20.73;;;;;;;-1.19;69.16;99827.00;4198145;28;20040;-78
2022/12/15 05:47:59;;;;;;;34.45;21.48;;;;;;;-1.20;69.33;99820.16;4189265;28;20124;-78
2022/12/15 05:50:02;;;;;;;33.05;22.13;;;;;;;-1.17;70.03;99825.41;4197082;28;20029;-78
2022/12/15 05:52:07;;;;;;;32.83;22.70;;;;;;;-1.19;69.43;99825.31;4186465;28;20041;-78
2022/12/15 05:54:10;;;;;;;34.50;21.92;;;;;;;-1.24;70.18;99837.84;4184883;28;20044;-78
2022/12/15 05:56:14;;;;;;;32.55;21.55;;;;;;;-1.29;69.13;99844.38;4190015;28;20514;-78
2022/12/15 05:58:17;;;;;;;33.92;21.98;;;;;;;-1.30;69.54;99842.63;4197294;28;20055;-78
2022/12/15 06:00:21;;;;;;;34.45;21.52;;;;;;;-1.25;69.37;99847.97;4196375;28;20434;-78
2022/12/15 06:02:24;;;;;;;34.50;21.25;;;;;;;-1.20;69.22;99843.09;4187158;28;20047;-78
2022/12/15 06:04:28;;;;;;;31.00;20.48;;;;;;;-1.23;69.13;99847.25;4179357;28;20041;-78
2022/12/15 06:06:31;;;;;;;34.53;20.35;;;;;;;-1.28;69.48;99842.72;4191060;28;20112;-78
2022/12/15 06:08:35;;;;;;;35.65;21.52;;;;;;;-1.24;70.19;99855.69;4170167;28;20037;-78
2022/12/15 06:10:38;;;;;;;33.53;21.30;;;;;;;-1.19;70.28;99860.16;4192032;28;20040;-78
2022/12/15 06:12:41;;;;;;;36.33;21.33;;;;;;;-1.12;69.88;99875.84;4183051;28;20041;-78
2022/12/15 06:14:44;;;;;;;37.60;21.80;;;;;;;-1.16;68.61;99876.47;4181113;28;20513;-78
2022/12/15 06:16:46;;;;;;;34.58;20.67;;;;;;;-1.23;69.64;99875.31;4190759;28;20044;-78
2022/12/15 06:18:55;;;;;;;33.17;21.02;;;;;;;-1.24;70.32;99862.47;4180429;28;20559;-78
2022/12/15 06:21:01;;;;;;;33.55;21.98;;;;;;;-1.27;70.20;99869.94;4163976;28;20042;-78
2022/12/15 06:23:04;;;;;;;38.38;20.80;;;;;;;-1.33;69.92;99864.53;4191401;28;20055;-78
2022/12/15 06:25:07;;;;;;;37.15;22.70;;;;;;;-1.29;70.13;99854.56;4177809;28;20053;-78
2022/12/15 06:27:10;;;;;;;34.80;21.38;;;;;;;-1.25;70.50;99851.38;4179349;28;20041;-78
2022/12/15 06:29:14;;;;;;;37.22;21.63;;;;;;;-1.26;70.49;99841.97;4183311;28;20045;-78
2022/12/15 06:31:21;;;;;;;34.88;22.77;;;;;;;-1.31;70.06;99837.47;4193753;28;20044;-77
2022/12/15 06:33:24;;;;;;;37.85;22.02;;;;;;;-1.38;70.65;99836.25;4192964;28;20056;-78
2022/12/15 06:35:27;;;;;;;32.42;20.80;;;;;;;-1.42;69.99;99840.31;4170923;28;20057;-78
2022/12/15 06:37:31;;;;;;;38.92;23.13;;;;;;;-1.35;70.43;99843.19;4195370;28;20437;-78
2022/12/15 06:39:34;;;;;;;42.25;23.30;;;;;;;-1.35;70.35;99850.84;4192697;28;20036;-78
2022/12/15 06:41:37;;;;;;;34.53;20.42;;;;;;;-1.53;71.33;99859.28;4192822;28;20040;-78
2022/12/15 06:43:40;;;;;;;36.47;21.85;;;;;;;-1.51;70.45;99870.41;4188501;28;20120;-79
2022/12/15 06:45:48;;;;;;;35.72;21.65;;;;;;;-1.50;71.44;99873.88;4194852;28;20460;-78
2022/12/15 06:47:51;;;;;;;34.08;20.52;;;;;;;-1.54;71.23;99877.91;4169385;28;20115;-78
2022/12/15 06:50:02;;;;;;;32.55;19.65;;;;;;;-1.63;71.72;99875.75;4180991;28;20040;-78
2022/12/15 06:52:05;;;;;;;35.70;21.27;;;;;;;-1.74;71.74;99881.06;4195360;28;20041;-76
2022/12/15 06:54:10;;;;;;;34.08;19.23;;;;;;;-1.78;71.34;99890.22;4175630;28;20037;-77
2022/12/15 06:56:17;;;;;;;33.90;20.48;;;;;;;-1.80;71.88;99889.25;4190454;28;20109;-76
2022/12/15 06:58:20;;;;;;;37.78;23.48;;;;;;;-1.80;71.62;99902.84;4166848;28;20041;-76
2022/12/15 07:00:23;;;;;;;33.60;21.55;;;;;;;-1.67;71.81;99884.00;4192503;28;20494;-77
2022/12/15 07:02:28;;;;;;;36.25;21.13;;;;;;;-1.57;70.89;99880.28;4196107;28;20086;-77
2022/12/15 07:04:32;;;;;;;37.42;21.45;;;;;;;-1.60;70.84;99887.78;4197003;28;20024;-77
2022/12/15 07:06:36;;;;;;;37.47;21.17;;;;;;;-1.59;70.91;99889.53;4197548;28;20409;-77
2022/12/15 07:08:40;;;;;;;33.35;22.23;;;;;;;-1.58;71.23;99875.97;4197133;28;20127;-76
2022/12/15 07:10:45;;;;;;;33.00;19.85;;;;;;;-1.62;71.00;99877.50;4197407;28;20392;-77
2022/12/15 07:12:47;;;;;;;32.88;21.10;;;;;;;-1.68;70.24;99871.19;4193946;28;20044;-76
2022/12/15 07:14:50;;;;;;;28.10;18.70;;;;;;;-1.72;70.35;99880.34;4194109;28;20625;-77
2022/12/15 07:16:55;;;;;;;35.88;21.75;;;;;;;-1.79;71.37;99884.22;4186064;28;20040;-78
2022/12/15 07:18:58;;;;;;;37.60;22.98;;;;;;;-1.75;70.79;99880.19;4172176;28;20523;-75
2022/12/15 07:21:03;;;;;;;36.22;22.45;;;;;;;-1.77;70.58;99887.75;4187376;28;20068;-77
2022/12/15 07:23:08;;;;;;;30.80;21.52;;;;;;;-1.90;70.85;99885.31;4195417;28;20062;-77
2022/12/15 07:25:11;;;;;;;37.80;23.80;;;;;;;-1.84;71.27;99890.75;4189496;28;20131;-77
2022/12/15 07:27:16;;;;;;;35.40;20.42;;;;;;;-1.83;71.35;99882.31;4196809;28;20498;-77
2022/12/15 07:29:19;;;;;;;33.88;21.40;;;;;;;-1.78;70.91;99886.00;4162810;28;20041;-78
2022/12/15 07:31:25;;;;;;;36.63;22.15;;;;;;;-1.82;71.49;99891.72;4180326;28;20045;-78
2022/12/15 07:33:29;;;;;;;45.17;23.67;;;;;;;-1.80;70.96;99896.88;4180193;28;20037;-78
2022/12/15 07:35:33;;;;;;;36.00;21.80;;;;;;;-1.86;70.94;99897.44;4179317;28;20594;-77
2022/12/15 07:37:36;;;;;;;32.40;21.17;;;;;;;-1.85;70.94;99886.44;4179282;28;20482;-77
2022/12/15 07:39:39;;;;;;;32.70;19.88;;;;;;;-1.70;70.70;99883.00;4189275;28;20119;-77
2022/12/15 07:41:42;;;;;;;41.85;21.33;;;;;;;-1.69;70.23;99883.06;4192800;28;20029;-77
2022/12/15 07:43:47;;;;;;;37.40;22.98;;;;;;;-1.68;70.88;99886.47;4194867;28;20063;-77
2022/12/15 07:45:54;;;;;;;36.25;20.83;;;;;;;-1.79;70.45;99886.78;4171126;28;20507;-77
2022/12/15 07:47:57;;;;;;;37.25;22.55;;;;;;;-1.75;70.53;99877.66;4179086;28;20044;-78
2022/12/15 07:50:00;;;;;;;36.92;22.13;;;;;;;-1.70;69.76;99872.78;4195723;28;20044;-77
2022/12/15 07:52:03;;;;;;;39.17;22.60;;;;;;;-1.90;70.29;99874.25;4195685;28;20072;-77
2022/12/15 07:54:06;;;;;;;38.88;20.48;;;;;;;-2.00;70.37;99883.94;4192833;28;20494;-78
2022/12/15 07:56:09;;;;;;;35.72;22.52;;;;;;;-2.10;70.21;99879.16;4190651;28;20048;-78
2022/12/15 07:58:12;;;;;;;42.08;23.25;;;;;;;-2.19;70.30;99887.16;4177986;28;20479;-77
2022/12/15 08:00:18;;;;;;;40.60;23.77;;;;;;;-2.26;70.38;99895.22;4192106;28;20047;-77
2022/12/15 08:02:21;;;;;;;42.45;23.75;;;;;;;-2.25;71.07;99899.50;4195199;28;20060;-77
2022/12/15 08:04:24;;;;;;;41.33;24.83;;;;;;;-2.26;70.61;99899.44;4195225;28;20458;-79
2022/12/15 08:06:27;;;;;;;50.38;25.95;;;;;;;-2.35;69.78;99894.69;4194876;28;20041;-78
2022/12/15 08:08:30;;;;;;;53.25;28.70;;;;;;;-2.46;70.77;99900.06;4193841;28;20052;-78
2022/12/15 08:10:34;;;;;;;48.60;25.70;;;;;;;-2.46;70.68;99906.81;4194672;28;20044;-78
2022/12/15 08:12:37;;;;;;;48.78;25.83;;;;;;;-2.61;71.22;99908.47;4198730;28;20037;-77
2022/12/15 08:14:40;;;;;;;49.40;26.85;;;;;;;-2.64;71.38;99916.84;4197081;28;20087;-78
2022/12/15 08:16:45;;;;;;;53.17;26.75;;;;;;;-2.53;70.80;99917.44;4199813;28;20032;-78
2022/12/15 08:18:48;;;;;;;62.80;29.00;;;;;;;-2.74;71.57;99927.25;4199724;28;20033;-78
2022/12/15 08:20:51;;;;;;;57.03;29.30;;;;;;;-2.71;72.00;99919.81;4199424;28;20036;-78
2022/12/15 08:22:54;;;;;;;63.30;28.92;;;;;;;-2.75;72.10;99923.81;4199097;28;20037;-78
2022/12/15 08:24:56;;;;;;;52.53;27.13;;;;;;;-2.76;72.19;99932.25;4204132;28;20068;-78
2022/12/15 08:26:59;;;;;;;51.95;29.48;;;;;;;-2.86;72.15;99946.09;4182397;28;20510;-78
2022/12/15 08:29:03;;;;;;;52.58;28.80;;;;;;;-2.91;72.60;99960.19;4190451;28;20045;-70
2022/12/15 08:31:27;;;;;;;62.33;30.05;;;;;;;-2.82;72.73;99968.38;4190455;28;20093;-69
2022/12/15 08:33:32;;;;;;;60.08;29.35;;;;;;;-2.72;72.77;99967.25;4197820;28;20048;-73
2022/12/15 08:35:38;;;;;;;54.05;27.42;;;;;;;-2.75;72.48;99979.78;4199398;28;20074;-72
2022/12/15 08:38:01;;;;;;;55.47;28.75;;;;;;;-2.76;72.44;99979.69;4190667;28;20090;-76
2022/12/15 08:40:09;;;;;;;52.78;26.83;;;;;;;-2.73;72.39;99978.22;4198213;28;20135;-76
2022/12/15 08:42:12;;;;;;;46.80;24.73;;;;;;;-2.63;72.51;99977.09;4190337;28;20037;-70
2022/12/15 08:44:16;;;;;;;51.30;27.27;;;;;;;-2.60;71.78;99971.31;4211627;28;20037;-75
2022/12/15 08:46:21;;;;;;;48.88;27.25;;;;;;;-2.43;71.24;99962.13;4190417;28;20052;-73
2022/12/15 08:48:24;;;;;;;45.40;26.50;;;;;;;-2.49;71.40;99973.69;4183645;28;20041;-72
2022/12/15 08:50:28;;;;;;;49.70;27.00;;;;;;;-2.42;71.24;99979.13;4185573;28;20037;-73
2022/12/15 08:52:31;;;;;;;46.22;26.25;;;;;;;-2.32;70.92;99979.78;4195507;28;20040;-74
2022/12/15 08:54:34;;;;;;;44.17;24.15;;;;;;;-2.30;70.53;99979.88;4182237;28;20407;-74
2022/12/15 08:56:36;;;;;;;53.60;27.60;;;;;;;-2.34;69.84;99985.56;4185067;28;20075;-78
2022/12/15 08:58:40;;;;;;;43.10;26.40;;;;;;;-2.42;69.59;99984.22;4187277;28;20055;-77
2022/12/15 09:00:42;;;;;;;47.65;24.95;;;;;;;-2.44;69.96;99996.00;4183968;28;20043;-73
2022/12/15 09:02:45;;;;;;;45.28;26.27;;;;;;;-2.48;70.52;100000.03;4180912;28;20469;-72
2022/12/15 09:04:49;;;;;;;47.58;25.27;;;;;;;-2.35;69.72;100001.63;4180883;28;20534;-71
2022/12/15 09:06:57;;;;;;;48.70;25.42;;;;;;;-2.45;69.93;100007.84;4188320;28;20525;-71
2022/12/15 09:09:02;;;;;;;47.45;24.88;;;;;;;-2.51;69.68;100010.91;4199135;28;20047;-73
2022/12/15 09:11:05;;;;;;;35.95;22.63;;;;;;;-2.46;69.90;100012.03;4197882;28;20039;-71
2022/12/15 09:13:08;;;;;;;44.47;24.98;;;;;;;-2.55;70.22;100011.50;4181622;28;20037;-71
2022/12/15 09:15:11;;;;;;;43.75;24.15;;;;;;;-2.42;70.31;100010.56;4182115;28;20067;-70
2022/12/15 09:17:14;;;;;;;40.08;24.52;;;;;;;-2.32;70.29;100006.91;4182626;28;20037;-71
2022/12/15 09:19:18;;;;;;;36.58;22.00;;;;;;;-2.18;69.22;100011.09;4189428;28;20037;-72
2022/12/15 09:21:22;;;;;;;36.90;23.27;;;;;;;-2.32;69.31;100004.38;4197053;28;20044;-71
2022/12/15 09:23:26;;;;;;;37.72;23.33;;;;;;;-2.27;70.01;100005.50;4186870;28;20045;-71
2022/12/15 09:25:30;;;;;;;37.85;22.52;;;;;;;-2.23;69.87;99998.91;4196369;28;20123;-78
2022/12/15 09:27:34;;;;;;;39.63;24.75;;;;;;;-1.98;69.29;99985.91;4197491;28;20090;-73
2022/12/15 09:29:37;;;;;;;41.92;22.42;;;;;;;-2.01;69.05;99973.88;4191612;28;20063;-72
2022/12/15 09:31:43;;;;;;;45.20;24.30;;;;;;;-1.99;69.01;99981.59;4181761;28;20045;-73
2022/12/15 09:33:46;;;;;;;36.63;22.65;;;;;;;-2.05;69.20;99982.13;4193980;28;20592;-74
2022/12/15 09:35:50;;;;;;;38.78;23.10;;;;;;;-2.10;69.19;99991.19;4198707;28;20045;-76
2022/12/15 09:37:53;;;;;;;39.33;22.67;;;;;;;-2.01;68.75;99991.72;4187071;28;20041;-73
2022/12/15 09:39:57;;;;;;;39.80;23.50;;;;;;;-2.06;68.82;99989.69;4187981;28;20090;-72
2022/12/15 09:42:00;;;;;;;41.70;23.13;;;;;;;-2.16;69.99;99994.25;4183433;28;20041;-72
2022/12/15 09:44:07;;;;;;;40.88;24.05;;;;;;;-1.95;69.71;99998.81;4198032;28;20079;-74
2022/12/15 09:46:21;;;;;;;39.72;24.60;;;;;;;-1.98;69.01;100003.75;4196692;28;20040;-71
2022/12/15 09:48:30;;;;;;;39.15;24.42;;;;;;;-2.02;69.47;100009.44;4198532;28;20514;-71
2022/12/15 09:50:37;;;;;;;39.28;23.02;;;;;;;-2.00;70.00;100002.75;4197542;28;20032;-72
2022/12/15 09:52:47;;;;;;;36.15;22.40;;;;;;;-1.76;68.61;100000.75;4198579;28;20041;-71
2022/12/15 09:54:50;;;;;;;38.40;23.20;;;;;;;-1.86;69.29;99991.69;4194012;28;20127;-67
2022/12/15 09:56:57;;;;;;;41.17;22.77;;;;;;;-1.89;69.66;99994.06;4191918;28;20530;-67
2022/12/15 09:59:06;;;;;;;39.65;22.95;;;;;;;-1.78;69.64;99993.00;4181830;28;20539;-69
2022/12/15 10:01:16;;;;;;;35.80;21.95;;;;;;;-1.71;69.40;99983.16;4190793;28;20052;-67
2022/12/15 10:03:38;;;;;;;38.47;23.42;;;;;;;-1.72;69.35;99983.94;4197913;28;20526;-74
2022/12/15 10:05:53;;;;;;;38.60;23.63;;;;;;;-1.71;69.55;99980.59;4188323;28;20032;-76
2022/12/15 10:08:16;;;;;;;41.40;22.17;;;;;;;-1.56;68.57;99989.09;4181737;28;20033;-75
2022/12/15 10:10:25;;;;;;;35.50;22.27;;;;;;;-1.69;69.37;99987.56;4195689;28;20425;-75
2022/12/15 10:12:35;;;;;;;35.80;22.10;;;;;;;-1.63;68.85;99984.47;4195981;28;20094;-73
2022/12/15 10:14:42;;;;;;;40.70;24.95;;;;;;;-1.58;69.19;99981.38;4184802;28;20037;-71
2022/12/15 10:16:54;;;;;;;41.35;23.13;;;;;;;-1.44;68.71;99971.91;4181771;28;20043;-74
2022/12/15 10:19:06;;;;;;;41.53;23.08;;;;;;;-1.50;68.58;99966.50;4192625;28;20044;-74
2022/12/15 10:21:12;;;;;;;39.10;23.23;;;;;;;-1.62;68.63;99969.25;4191471;28;20082;-74
2022/12/15 10:23:17;;;;;;;41.20;25.25;;;;;;;-1.77;69.05;99973.50;4180961;28;20103;-68
2022/12/15 10:25:22;;;;;;;38.67;22.77;;;;;;;-1.66;68.24;99974.97;4180006;28;20052;-68
2022/12/15 10:27:58;;;;;;;38.70;21.90;;;;;;;-1.72;68.53;99955.91;4194431;28;20091;-69
2022/12/15 10:30:04;;;;;;;39.53;24.17;;;;;;;-1.80;69.28;99948.72;4196519;28;20049;-69
2022/12/15 10:32:16;;;;;;;39.40;23.25;;;;;;;-1.85;69.27;99944.19;4192318;28;20040;-74
2022/12/15 10:34:25;;;;;;;40.50;22.92;;;;;;;-1.77;69.23;99941.28;4195156;28;20052;-70
2022/12/15 10:36:28;;;;;;;41.47;24.45;;;;;;;-1.80;68.73;99952.94;4195394;28;20036;-73
2022/12/15 10:38:36;;;;;;;39.17;23.98;;;;;;;-1.89;68.34;99955.84;4181051;28;20045;-73
2022/12/15 10:40:45;;;;;;;37.30;22.77;;;;;;;-1.86;69.08;99958.56;4181979;28;20048;-75
2022/12/15 10:43:15;;;;;;;44.22;25.20;;;;;;;-1.85;68.19;99960.34;4195353;28;20531;-71
2022/12/15 10:45:35;;;;;;;39.70;23.83;;;;;;;-1.98;68.42;99960.44;4179614;28;20514;-78
2022/12/15 10:47:37;;;;;;;39.50;23.95;;;;;;;-1.94;68.49;99959.84;4185339;28;20048;-65
2022/12/15 10:49:40;;;;;;;39.63;22.98;;;;;;;-2.07;68.32;99968.44;4197353;28;20044;-65
2022/12/15 10:51:45;;;;;;;38.35;22.90;;;;;;;-1.98;69.31;99973.19;4197159;28;20518;-67
2022/12/15 10:53:49;;;;;;;41.22;24.92;;;;;;;-1.97;68.19;99969.81;4189303;28;20071;-66
2022/12/15 10:55:59;;;;;;;;;;;;;;;-2.06;69.08;99964.22;4192890;28;20033;-67
2022/12/15 10:58:03;;;;;;;42.33;24.25;;;;;;;-2.08;69.46;99965.81;4186937;28;19924;-67
2022/12/15 11:00:27;;;;;;;39.70;24.65;;;;;;;-1.91;69.31;99960.00;4189720;28;20040;-67
2022/12/15 11:02:32;;;;;;;39.35;24.02;;;;;;;-1.98;69.10;99966.41;4193181;28;20094;-66
2022/12/15 11:04:36;;;;;;;46.80;25.13;;;;;;;-2.12;69.38;99965.66;4192126;28;20483;-67
2022/12/15 11:06:42;;;;;;;42.75;25.70;;;;;;;-2.08;69.98;99959.03;4193080;28;20039;-66
2022/12/15 11:08:46;;;;;;;45.95;26.42;;;;;;;-1.96;69.42;99947.00;4191109;28;20037;-67
2022/12/15 11:13:15;;;;;;;45.65;25.80;;;;;;;-1.95;69.38;99947.88;4197138;28;20068;-76
2022/12/15 11:15:44;;;;;;;46.92;26.17;;;;;;;-1.87;69.74;99938.09;4190739;28;20047;-77
2022/12/15 11:17:55;;;;;;;48.40;28.30;;;;;;;-1.89;69.56;99934.63;4197104;28;20036;-77
2022/12/15 11:20:03;;;;;;;49.35;28.60;;;;;;;-1.78;69.92;99931.84;4189652;28;20498;-77
2022/12/15 11:22:14;;;;;;;51.47;29.27;;;;;;;-1.80;69.20;99914.72;4197118;28;20055;-77
2022/12/15 11:24:33;;;;;;;54.22;29.15;;;;;;;-1.83;70.38;99912.88;4194544;28;20040;-77
2022/12/15 11:26:46;;;;;;;55.20;31.83;;;;;;;-1.85;70.31;99914.47;4189593;28;20032;-77
2022/12/15 11:28:56;;;;;;;57.35;32.08;;;;;;;-1.79;70.30;99913.94;4195720;28;20082;-77
2022/12/15 11:31:09;;;;;;;61.25;34.60;;;;;;;-1.85;69.60;99911.06;4197142;28;20060;-77
2022/12/15 11:33:13;;;;;;;55.55;32.53;;;;;;;-2.06;70.86;99901.41;4197149;28;20538;-77
2022/12/15 11:35:21;;;;;;;62.60;34.05;;;;;;;-2.21;71.52;99898.91;4196981;28;20102;-76
2022/12/15 11:37:36;;;;;;;63.47;34.83;;;;;;;-2.11;70.98;99898.63;4194229;28;20033;-77
2022/12/15 11:40:00;;;;;;;64.32;34.42;;;;;;;-2.16;71.23;99897.50;4195735;28;20067;-77
2022/12/15 11:42:13;;;;;;;64.57;34.80;;;;;;;-2.34;71.95;99887.16;4180491;28;20047;-76
2022/12/15 11:44:24;;;;;;;70.25;33.47;;;;;;;-2.29;71.87;99884.88;4180071;28;20037;-76
2022/12/15 11:46:34;;;;;;;56.85;31.95;;;;;;;-2.24;72.19;99874.94;4188675;28;20052;-77
2022/12/15 11:48:47;;;;;;;66.25;33.55;;;;;;;-2.18;71.91;99883.78;4200248;28;20043;-76
2022/12/15 11:50:59;;;;;;;59.58;33.80;;;;;;;-2.14;71.48;99878.09;4200329;28;20044;-76
2022/12/15 11:53:14;;;;;;;60.55;32.08;;;;;;;-2.20;71.37;99879.44;4200268;28;20044;-76
2022/12/15 11:55:23;;;;;;;65.70;35.30;;;;;;;-2.41;72.62;99889.25;4197438;28;20525;-76
2022/12/15 11:58:02;;;;;;;63.17;33.45;;;;;;;-2.35;72.38;99887.06;4199847;28;20555;-76
2022/12/15 12:00:08;;;;;;;61.38;34.25;;;;;;;-2.35;72.47;99887.97;4183872;28;20056;-76
2022/12/15 12:02:34;;;;;;;82.45;41.25;;;;;;;-2.41;72.27;99890.16;4183662;28;20045;-76
2022/12/15 12:04:43;;;;;;;64.10;33.97;;;;;;;-2.43;73.05;99890.84;4181808;28;20033;-77
2022/12/15 12:07:00;;;;;;;58.15;32.15;;;;;;;-2.31;71.87;99887.34;4194724;28;20036;-74